Time;durP1;ratioP1;P1;durP2;ratioP2;P2;SDS_P1;SDS_P2;PMS_P1;PMS_P2;Temp;Humidity;BMP_temperature;BMP_pressure;BME280_temperature;BME280_humidity;BME280_pressure;Samples;Min_cycle;Max_cycle;Signal;HPM_P1;HPM_P2
2022/07/30 00:01:14;;;;;;;6.17;3.83;;;22.40;99.90;;;;;;5073099;28;20570;-76
2022/07/30 00:03:41;;;;;;;5.40;3.73;;;22.50;99.90;;;;;;5073030;28;20646;-76
2022/07/30 00:06:07;;;;;;;3.07;2.87;;;22.40;99.90;;;;;;5073094;28;20668;-76
2022/07/30 00:08:34;;;;;;;3.30;3.00;;;22.40;99.90;;;;;;5071802;28;20619;-76
2022/07/30 00:11:00;;;;;;;4.73;4.30;;;22.30;99.90;;;;;;5072327;28;20589;-76
2022/07/30 00:13:27;;;;;;;8.23;4.53;;;22.30;99.90;;;;;;5073595;28;20923;-75
2022/07/30 00:15:53;;;;;;;4.20;3.37;;;22.30;99.90;;;;;;5071733;28;21199;-75
2022/07/30 00:18:20;;;;;;;6.80;3.17;;;22.30;99.90;;;;;;5073470;28;20652;-75
2022/07/30 00:20:47;;;;;;;4.33;3.07;;;22.20;99.90;;;;;;5073277;28;20548;-75
2022/07/30 00:23:14;;;;;;;3.73;3.07;;;22.10;99.90;;;;;;5071811;28;20570;-75
2022/07/30 00:25:40;;;;;;;4.40;3.07;;;22.10;99.90;;;;;;5073456;28;20600;-75
2022/07/30 00:28:07;;;;;;;3.50;3.30;;;22.00;99.90;;;;;;5073590;28;20571;-75
2022/07/30 00:30:33;;;;;;;6.70;3.83;;;21.90;99.90;;;;;;5071505;28;20694;-76
2022/07/30 00:32:59;;;;;;;8.93;4.03;;;21.90;99.90;;;;;;5070952;28;20586;-76
2022/07/30 00:35:26;;;;;;;4.43;3.67;;;21.90;99.90;;;;;;5071685;28;20589;-76
2022/07/30 00:37:53;;;;;;;4.27;3.40;;;21.80;99.90;;;;;;5072939;28;20652;-76
2022/07/30 00:40:19;;;;;;;5.67;3.50;;;21.80;99.90;;;;;;5055119;28;20963;-76
2022/07/30 00:42:47;;;;;;;6.53;3.70;;;21.80;99.90;;;;;;5071646;28;21165;-76
2022/07/30 00:45:15;;;;;;;3.63;3.33;;;21.70;99.90;;;;;;5071514;28;20710;-76
2022/07/30 00:47:42;;;;;;;4.73;3.43;;;21.70;99.90;;;;;;5072952;28;20563;-76
2022/07/30 00:50:10;;;;;;;3.93;3.63;;;21.60;99.90;;;;;;5073212;28;20613;-75
2022/07/30 00:52:38;;;;;;;4.83;3.77;;;21.50;99.90;;;;;;5072769;28;20551;-75
2022/07/30 00:55:08;;;;;;;5.03;4.07;;;21.50;99.90;;;;;;5071869;28;20574;-75
2022/07/30 00:57:34;;;;;;;4.63;4.13;;;21.40;99.90;;;;;;5072645;28;20579;-75
2022/07/30 01:00:02;;;;;;;4.77;4.30;;;21.40;99.90;;;;;;5071722;28;20981;-76
2022/07/30 01:02:28;;;;;;;6.13;4.50;;;21.40;99.90;;;;;;5072925;28;20606;-76
2022/07/30 01:04:55;;;;;;;5.40;3.40;;;21.10;99.90;;;;;;5072486;28;21067;-76
2022/07/30 01:07:22;;;;;;;4.30;3.87;;;21.10;99.90;;;;;;5038715;28;20611;-75
2022/07/30 01:09:48;;;;;;;4.00;3.70;;;21.00;99.90;;;;;;5071812;28;20567;-75
2022/07/30 01:12:18;;;;;;;4.27;3.97;;;20.70;99.90;;;;;;5054786;28;20621;-75
2022/07/30 01:14:45;;;;;;;3.83;3.40;;;20.60;99.90;;;;;;5072595;28;20585;-75
2022/07/30 01:17:12;;;;;;;6.00;4.03;;;20.60;99.90;;;;;;5072614;28;20602;-76
2022/07/30 01:19:54;;;;;;;4.80;4.30;;;20.50;99.90;;;;;;5072781;28;20942;-76
2022/07/30 01:22:29;;;;;;;5.63;3.50;;;20.20;99.90;;;;;;5072921;28;20567;-76
2022/07/30 01:25:28;;;;;;;4.00;3.70;;;20.00;99.90;;;;;;5072562;28;20665;-76
2022/07/30 01:28:16;;;;;;;8.90;3.60;;;19.80;99.90;;;;;;5072471;28;20578;-76
2022/07/30 01:30:44;;;;;;;4.70;4.37;;;19.80;99.90;;;;;;5072544;28;20723;-76
2022/07/30 01:33:14;;;;;;;5.13;4.33;;;19.70;99.90;;;;;;5071056;28;20607;-76
2022/07/30 01:35:43;;;;;;;4.40;3.50;;;19.70;99.90;;;;;;5072269;28;20575;-75
2022/07/30 01:38:12;;;;;;;3.90;3.60;;;19.60;99.90;;;;;;5071047;28;20683;-75
2022/07/30 01:40:43;;;;;;;4.40;3.97;;;19.50;99.90;;;;;;5072584;28;20571;-75
2022/07/30 01:43:11;;;;;;;4.43;4.13;;;19.50;99.90;;;;;;5072653;28;20574;-76
2022/07/30 01:45:39;;;;;;;4.30;4.00;;;19.40;99.90;;;;;;5074594;28;20640;-76
2022/07/30 01:48:10;;;;;;;4.20;3.87;;;19.30;99.90;;;;;;5076101;28;20602;-76
2022/07/30 01:50:41;;;;;;;3.93;3.53;;;19.30;99.90;;;;;;5074736;28;20592;-75
2022/07/30 01:53:08;;;;;;;4.83;3.93;;;19.30;99.90;;;;;;5076474;28;20640;-76
2022/07/30 01:55:38;;;;;;;6.30;4.10;;;19.20;99.90;;;;;;5075185;28;20568;-76
2022/07/30 01:58:06;;;;;;;5.93;4.00;;;19.10;99.90;;;;;;5075938;28;20571;-76
2022/07/30 02:00:37;;;;;;;6.00;5.47;;;19.10;99.90;;;;;;5076375;28;20602;-76
2022/07/30 02:03:07;;;;;;;5.63;4.50;;;18.90;99.90;;;;;;5074361;28;20621;-76
2022/07/30 02:05:35;;;;;;;4.57;4.17;;;18.80;99.90;;;;;;5074311;28;20659;-76
2022/07/30 02:08:06;;;;;;;7.73;4.80;;;18.80;99.90;;;;;;5075891;28;20574;-76
2022/07/30 02:10:40;;;;;;;4.73;4.43;;;18.90;99.90;;;;;;5075633;28;20739;-76
2022/07/30 02:13:08;;;;;;;4.47;4.07;;;18.90;99.90;;;;;;5075801;28;20571;-76
2022/07/30 02:15:44;;;;;;;5.13;4.63;;;18.90;99.90;;;;;;5074247;28;20965;-76
2022/07/30 02:18:29;;;;;;;5.10;4.30;;;18.80;99.90;;;;;;5075380;28;20590;-76
2022/07/30 02:21:05;;;;;;;4.63;3.97;;;18.90;99.90;;;;;;5075740;28;20558;-76
2022/07/30 02:23:38;;;;;;;7.50;5.07;;;18.90;99.90;;;;;;5075446;28;20582;-76
2022/07/30 02:26:07;;;;;;;8.20;5.20;;;18.90;99.90;;;;;;5074282;28;20605;-76
2022/07/30 02:28:36;;;;;;;4.77;4.47;;;18.90;99.90;;;;;;5074553;28;20549;-76
2022/07/30 02:31:06;;;;;;;8.90;5.10;;;18.70;99.90;;;;;;5075360;28;20606;-76
2022/07/30 02:33:37;;;;;;;6.17;4.67;;;18.70;99.90;;;;;;5074007;28;20627;-76
2022/07/30 02:36:06;;;;;;;6.47;4.73;;;18.50;99.90;;;;;;5075351;28;20570;-76
2022/07/30 02:38:34;;;;;;;5.33;4.83;;;18.50;99.90;;;;;;5073820;28;21156;-76
2022/07/30 02:41:03;;;;;;;4.43;3.60;;;18.50;99.90;;;;;;5075310;28;20589;-75
2022/07/30 02:43:31;;;;;;;6.13;5.17;;;18.50;99.90;;;;;;5073813;28;20626;-75
2022/07/30 02:46:00;;;;;;;7.30;5.03;;;18.50;99.90;;;;;;5057321;28;20618;-75
2022/07/30 02:48:27;;;;;;;5.00;4.50;;;18.40;99.90;;;;;;5075194;28;20589;-75
2022/07/30 02:50:56;;;;;;;4.60;4.20;;;18.40;99.90;;;;;;5056713;28;20618;-75
2022/07/30 02:53:25;;;;;;;5.53;4.87;;;18.30;99.90;;;;;;5075094;28;20585;-75
2022/07/30 02:55:54;;;;;;;5.83;4.73;;;18.30;99.90;;;;;;5073110;28;21136;-75
2022/07/30 02:58:23;;;;;;;5.53;5.03;;;18.20;99.90;;;;;;5073567;28;20603;-75
2022/07/30 03:00:52;;;;;;;5.53;4.40;;;18.10;99.90;;;;;;5074563;28;20967;-75
2022/07/30 03:03:20;;;;;;;6.47;4.47;;;18.10;99.90;;;;;;5074766;28;20571;-75
2022/07/30 03:05:52;;;;;;;5.20;4.50;;;17.90;99.90;;;;;;5074260;28;20660;-75
2022/07/30 03:08:19;;;;;;;5.20;4.80;;;17.90;99.90;;;;;;5073678;28;20594;-75
2022/07/30 03:10:47;;;;;;;4.93;4.50;;;17.90;99.90;;;;;;5072882;28;20593;-75
2022/07/30 03:13:15;;;;;;;5.60;5.10;;;17.80;99.90;;;;;;5074699;28;20974;-75
2022/07/30 03:15:47;;;;;;;5.90;5.20;;;17.70;99.90;;;;;;5075002;28;20697;-75
2022/07/30 03:18:17;;;;;;;5.60;4.80;;;17.80;99.90;;;;;;5073039;28;20622;-75
2022/07/30 03:20:48;;;;;;;4.83;4.33;;;17.80;99.90;;;;;;5074328;28;20655;-75
2022/07/30 03:23:19;;;;;;;7.03;4.93;;;17.80;99.90;;;;;;5073177;28;20633;-75
2022/07/30 03:25:59;;;;;;;4.97;4.60;;;17.80;99.90;;;;;;5073000;28;21017;-75
2022/07/30 03:28:29;;;;;;;6.30;5.63;;;17.70;99.90;;;;;;5074370;28;20549;-75
2022/07/30 03:30:57;;;;;;;5.40;4.90;;;17.60;99.90;;;;;;5072944;28;20595;-75
2022/07/30 03:33:24;;;;;;;4.27;3.90;;;17.50;99.90;;;;;;5056769;28;20601;-75
2022/07/30 03:35:52;;;;;;;9.10;5.47;;;17.40;99.90;;;;;;5073065;28;20630;-75
2022/07/30 03:38:20;;;;;;;5.73;4.73;;;17.50;99.90;;;;;;5072636;28;20974;-75
2022/07/30 03:40:48;;;;;;;6.73;5.43;;;17.50;99.90;;;;;;5072967;28;20585;-75
2022/07/30 03:43:15;;;;;;;7.50;5.33;;;17.40;99.90;;;;;;5056329;28;20621;-75
2022/07/30 03:45:44;;;;;;;5.77;5.27;;;17.40;99.90;;;;;;5072643;28;20637;-75
2022/07/30 03:48:12;;;;;;;5.50;5.10;;;17.40;99.90;;;;;;5073529;28;20602;-75
2022/07/30 03:50:42;;;;;;;6.40;5.30;;;17.40;99.90;;;;;;5074064;28;20598;-75
2022/07/30 03:53:10;;;;;;;7.23;5.60;;;17.40;99.90;;;;;;5073907;28;20636;-75
2022/07/30 03:55:37;;;;;;;4.93;4.53;;;17.50;99.90;;;;;;5055833;28;20721;-75
2022/07/30 03:58:05;;;;;;;5.30;4.87;;;17.50;99.90;;;;;;5072322;28;20579;-75
2022/07/30 04:00:32;;;;;;;6.23;5.63;;;17.50;99.90;;;;;;5073945;28;20594;-75
2022/07/30 04:02:59;;;;;;;6.13;5.33;;;17.50;99.90;;;;;;5072254;28;20626;-75
2022/07/30 04:05:25;;;;;;;8.83;6.87;;;17.60;99.90;;;;;;5073144;28;20661;-75
2022/07/30 04:07:52;;;;;;;5.50;5.00;;;17.50;99.90;;;;;;5073145;28;20585;-75
2022/07/30 04:10:19;;;;;;;6.30;5.50;;;17.40;99.90;;;;;;5073305;28;20579;-75
2022/07/30 04:12:45;;;;;;;6.00;5.40;;;17.50;99.90;;;;;;5071988;28;21139;-76
2022/07/30 04:15:12;;;;;;;6.97;5.43;;;17.50;99.90;;;;;;5055275;28;20618;-75
2022/07/30 04:17:50;;;;;;;6.03;5.47;;;17.60;99.90;;;;;;5073458;28;21113;-75
2022/07/30 04:20:22;;;;;;;5.67;5.23;;;17.60;99.90;;;;;;5073408;28;20574;-75
2022/07/30 04:22:50;;;;;;;5.60;5.20;;;17.60;99.90;;;;;;5071820;28;20982;-75
2022/07/30 04:25:17;;;;;;;6.03;5.43;;;17.60;99.90;;;;;;5072803;28;21254;-75
2022/07/30 04:27:44;;;;;;;5.03;4.63;;;17.70;99.90;;;;;;5071967;28;20575;-75
2022/07/30 04:30:11;;;;;;;5.90;5.30;;;17.70;99.90;;;;;;5072251;28;20596;-75
2022/07/30 04:32:38;;;;;;;6.30;5.23;;;17.70;99.90;;;;;;5071883;28;21144;-75
2022/07/30 04:35:05;;;;;;;5.87;5.37;;;17.70;99.90;;;;;;5072878;28;20719;-75
2022/07/30 04:37:31;;;;;;;5.70;5.20;;;17.80;99.90;;;;;;5071923;28;20597;-75
2022/07/30 04:39:58;;;;;;;7.53;5.13;;;17.80;99.90;;;;;;5071822;28;20589;-75
2022/07/30 04:42:26;;;;;;;7.93;6.20;;;17.80;99.90;;;;;;5073112;28;20641;-75
2022/07/30 04:44:54;;;;;;;7.90;4.90;;;17.90;99.90;;;;;;5073148;28;20686;-74
2022/07/30 04:47:21;;;;;;;6.83;5.37;;;18.00;99.90;;;;;;5071384;28;20931;-75
2022/07/30 04:49:49;;;;;;;5.40;5.00;;;17.80;99.90;;;;;;5071428;28;20960;-75
2022/07/30 04:52:17;;;;;;;6.57;5.80;;;17.80;99.90;;;;;;5072848;28;20575;-75
2022/07/30 04:55:05;;;;;;;6.10;5.03;;;17.70;99.90;;;;;;5073379;28;20586;-75
2022/07/30 04:57:34;;;;;;;6.20;5.60;;;17.80;99.90;;;;;;5072772;28;20582;-75
2022/07/30 05:00:01;;;;;;;5.80;4.97;;;17.70;99.90;;;;;;5071445;28;20630;-75
2022/07/30 05:02:29;;;;;;;7.17;5.03;;;17.80;99.90;;;;;;5072680;28;20609;-75
2022/07/30 05:04:57;;;;;;;7.30;5.40;;;17.90;99.90;;;;;;5072700;28;20715;-75
2022/07/30 05:07:26;;;;;;;7.07;5.10;;;18.10;99.90;;;;;;5054602;28;20610;-75
2022/07/30 05:09:52;;;;;;;5.10;4.60;;;18.10;99.90;;;;;;5071980;28;20917;-75
2022/07/30 05:12:20;;;;;;;5.80;5.00;;;18.00;99.90;;;;;;5072843;28;20575;-75
2022/07/30 05:14:46;;;;;;;7.33;5.17;;;17.80;99.90;;;;;;5071756;28;20625;-75
2022/07/30 05:17:13;;;;;;;5.40;5.00;;;17.80;99.90;;;;;;5073090;28;20912;-75
2022/07/30 05:19:39;;;;;;;5.70;5.37;;;17.80;99.90;;;;;;5038886;28;20679;-75
2022/07/30 05:22:06;;;;;;;5.13;4.73;;;17.80;99.90;;;;;;5075640;28;20570;-75
2022/07/30 05:24:32;;;;;;;6.17;5.57;;;17.90;99.90;;;;;;5075045;28;20677;-75
2022/07/30 05:26:59;;;;;;;10.90;5.60;;;17.80;99.90;;;;;;5076246;28;20575;-75
2022/07/30 05:29:25;;;;;;;5.70;5.17;;;17.90;99.90;;;;;;5074936;28;20625;-75
2022/07/30 05:31:52;;;;;;;7.70;5.20;;;18.00;99.90;;;;;;5058759;28;20629;-75
2022/07/30 05:34:18;;;;;;;5.13;4.70;;;17.90;99.90;;;;;;5076472;28;20553;-75
2022/07/30 05:36:45;;;;;;;9.30;5.57;;;18.00;99.90;;;;;;5075066;28;21081;-75
2022/07/30 05:39:12;;;;;;;5.03;4.60;;;18.10;99.90;;;;;;5076357;28;20589;-75
2022/07/30 05:41:38;;;;;;;5.90;5.20;;;18.20;99.90;;;;;;5076499;28;20574;-75
2022/07/30 05:44:05;;;;;;;5.40;4.93;;;18.40;99.90;;;;;;5058309;28;21184;-75
2022/07/30 05:46:32;;;;;;;6.17;5.23;;;18.60;99.90;;;;;;5075156;28;20618;-75
2022/07/30 05:49:00;;;;;;;8.03;5.00;;;18.70;99.90;;;;;;5076451;28;20577;-75
2022/07/30 05:51:28;;;;;;;5.73;5.23;;;18.80;99.90;;;;;;5076389;28;20570;-74
2022/07/30 05:53:54;;;;;;;5.67;5.03;;;18.90;99.90;;;;;;5076016;28;20659;-75
2022/07/30 05:56:20;;;;;;;7.50;5.10;;;18.80;99.90;;;;;;5074504;28;20615;-75
2022/07/30 05:58:47;;;;;;;6.20;5.60;;;18.90;99.90;;;;;;5074281;28;20596;-74
2022/07/30 06:01:13;;;;;;;6.77;5.63;;;18.90;99.90;;;;;;5075095;28;20545;-75
2022/07/30 06:03:40;;;;;;;6.97;5.23;;;19.10;99.90;;;;;;5057792;28;20656;-75
2022/07/30 06:06:07;;;;;;;8.40;5.00;;;19.20;99.90;;;;;;5075865;28;20674;-75
2022/07/30 06:08:34;;;;;;;6.67;5.20;;;19.30;99.90;;;;;;5075987;28;20587;-75
2022/07/30 06:11:01;;;;;;;6.10;4.80;;;19.10;99.90;;;;;;5074175;28;20634;-74
2022/07/30 06:13:28;;;;;;;4.83;4.50;;;19.20;99.90;;;;;;5075867;28;20717;-75
2022/07/30 06:15:55;;;;;;;9.00;4.87;;;19.20;99.90;;;;;;5075609;28;20949;-75
2022/07/30 06:18:21;;;;;;;5.23;4.67;;;19.50;99.90;;;;;;5074475;28;20570;-75
2022/07/30 06:20:50;;;;;;;9.07;4.93;;;19.50;99.90;;;;;;5041041;28;20987;-76
2022/07/30 06:23:17;;;;;;;5.60;5.10;;;19.40;99.90;;;;;;5057680;28;20625;-76
2022/07/30 06:25:47;;;;;;;6.93;5.10;;;19.50;99.90;;;;;;5074277;28;20642;-77
2022/07/30 06:28:14;;;;;;;16.03;7.13;;;19.70;99.90;;;;;;5073968;28;20610;-76
2022/07/30 06:30:41;;;;;;;5.17;4.73;;;20.00;99.90;;;;;;5074757;28;20571;-76
2022/07/30 06:33:07;;;;;;;10.17;5.90;;;20.20;99.90;;;;;;5057074;28;20618;-77
2022/07/30 06:35:33;;;;;;;4.50;4.10;;;20.30;99.90;;;;;;5057524;28;20618;-76
2022/07/30 06:38:00;;;;;;;7.43;4.90;;;20.30;99.90;;;;;;5073648;28;21057;-76
2022/07/30 06:40:26;;;;;;;5.13;4.73;;;20.40;99.90;;;;;;5075337;28;20565;-75
2022/07/30 06:42:53;;;;;;;9.63;5.17;;;20.50;99.90;;;;;;5057709;28;20579;-75
2022/07/30 06:45:19;;;;;;;4.37;4.00;;;20.40;99.90;;;;;;5073569;28;20664;-76
2022/07/30 06:47:46;;;;;;;9.23;5.23;;;20.50;99.90;;;;;;5074959;28;20945;-76
2022/07/30 06:50:12;;;;;;;6.47;4.30;;;20.20;99.90;;;;;;5057107;28;20596;-75
2022/07/30 06:52:39;;;;;;;7.90;4.83;;;20.40;99.90;;;;;;5073832;28;20613;-75
2022/07/30 06:55:06;;;;;;;5.50;5.10;;;20.50;99.90;;;;;;5073461;28;20623;-76
2022/07/30 06:57:32;;;;;;;7.30;5.83;;;20.50;99.90;;;;;;5074930;28;20576;-75
2022/07/30 06:59:59;;;;;;;10.10;5.53;;;20.60;99.90;;;;;;5074921;28;21140;-76
2022/07/30 07:02:25;;;;;;;8.53;4.30;;;20.60;99.90;;;;;;5056851;28;20671;-75
2022/07/30 07:04:52;;;;;;;9.87;4.20;;;20.70;99.90;;;;;;5074643;28;20673;-76
2022/07/30 07:07:19;;;;;;;5.80;5.20;;;20.80;99.90;;;;;;5073738;28;20907;-76
2022/07/30 07:09:45;;;;;;;4.90;4.50;;;20.70;99.90;;;;;;5074819;28;20582;-76
2022/07/30 07:12:11;;;;;;;4.47;4.20;;;20.60;99.90;;;;;;5056933;28;20571;-75
2022/07/30 07:14:38;;;;;;;10.20;4.93;;;20.90;99.90;;;;;;5073533;28;20590;-75
2022/07/30 07:17:04;;;;;;;4.20;3.90;;;20.90;99.90;;;;;;5073069;28;20643;-75
2022/07/30 07:19:31;;;;;;;4.67;4.27;;;20.80;99.90;;;;;;5073546;28;20959;-76
2022/07/30 07:21:57;;;;;;;5.00;4.50;;;21.00;99.90;;;;;;5074806;28;20575;-75
2022/07/30 07:24:24;;;;;;;5.03;4.53;;;21.10;99.90;;;;;;5074319;28;20643;-75
2022/07/30 07:26:50;;;;;;;6.20;5.23;;;21.10;99.90;;;;;;5056521;28;20637;-75
2022/07/30 07:29:17;;;;;;;8.30;4.90;;;21.10;99.90;;;;;;5074470;28;20577;-76
2022/07/30 07:31:43;;;;;;;6.70;5.03;;;20.90;99.90;;;;;;5073016;28;20606;-75
2022/07/30 07:34:10;;;;;;;4.90;4.50;;;20.80;99.90;;;;;;5072629;28;20633;-75
2022/07/30 07:36:38;;;;;;;8.30;4.43;;;20.80;99.90;;;;;;5074516;28;20575;-75
2022/07/30 07:39:08;;;;;;;4.97;4.60;;;20.90;99.90;;;;;;5072832;28;20622;-75
2022/07/30 07:41:37;;;;;;;5.57;5.27;;;20.90;99.90;;;;;;5074058;28;20574;-76
2022/07/30 07:44:04;;;;;;;5.00;4.37;;;20.80;99.90;;;;;;5072283;28;20560;-75
2022/07/30 07:46:31;;;;;;;8.43;5.13;;;20.80;99.90;;;;;;5072378;28;20953;-76
2022/07/30 07:48:58;;;;;;;7.47;4.70;;;20.70;99.90;;;;;;5073159;28;20973;-76
2022/07/30 07:51:24;;;;;;;13.20;4.70;;;20.70;99.90;;;;;;5073936;28;20586;-76
2022/07/30 07:53:51;;;;;;;4.93;4.53;;;20.90;99.90;;;;;;5072187;28;20618;-76
2022/07/30 07:56:17;;;;;;;7.53;5.77;;;20.90;99.90;;;;;;5073670;28;20621;-75
2022/07/30 07:58:46;;;;;;;11.80;5.20;;;20.80;99.90;;;;;;5055669;28;20614;-75
2022/07/30 08:01:12;;;;;;;4.67;4.17;;;20.80;99.90;;;;;;5073752;28;20590;-75
2022/07/30 08:03:39;;;;;;;8.60;4.47;;;21.00;99.90;;;;;;5073824;28;20594;-75
2022/07/30 08:06:05;;;;;;;6.47;5.23;;;21.20;99.90;;;;;;5072438;28;20661;-76
2022/07/30 08:08:32;;;;;;;11.60;4.40;;;21.30;99.90;;;;;;5073717;28;20582;-75
2022/07/30 08:10:58;;;;;;;5.27;4.87;;;21.40;99.90;;;;;;5073956;28;20579;-75
2022/07/30 08:13:25;;;;;;;6.37;5.20;;;21.70;99.90;;;;;;5072241;28;20563;-75
2022/07/30 08:15:51;;;;;;;5.50;5.00;;;21.90;99.90;;;;;;5072217;28;20586;-75
2022/07/30 08:18:18;;;;;;;7.00;4.90;;;22.20;99.90;;;;;;5055680;28;21118;-75
2022/07/30 08:20:44;;;;;;;5.77;5.07;;;22.50;99.90;;;;;;5055817;28;21018;-73
2022/07/30 08:23:11;;;;;;;5.83;5.07;;;22.10;99.90;;;;;;5055952;28;20625;-75
2022/07/30 08:25:37;;;;;;;8.13;4.93;;;22.10;99.90;;;;;;5072965;28;20661;-76
2022/07/30 08:28:04;;;;;;;5.20;4.90;;;22.20;99.90;;;;;;5073748;28;20585;-76
2022/07/30 08:30:31;;;;;;;5.43;5.03;;;22.30;99.90;;;;;;5073364;28;20564;-76
2022/07/30 08:32:57;;;;;;;14.10;6.00;;;22.50;99.90;;;;;;5055241;28;21127;-76
2022/07/30 08:35:24;;;;;;;7.23;4.43;;;22.70;99.90;;;;;;5073237;28;21089;-76
2022/07/30 08:37:50;;;;;;;5.10;4.80;;;22.60;99.90;;;;;;5073520;28;20716;-76
2022/07/30 08:40:19;;;;;;;5.20;4.70;;;22.70;99.90;;;;;;5055496;28;20622;-76
2022/07/30 08:42:46;;;;;;;6.70;4.67;;;23.00;99.90;;;;;;5073317;28;20667;-76
2022/07/30 08:45:13;;;;;;;12.03;5.87;;;23.20;99.90;;;;;;5074457;28;20630;-76
2022/07/30 08:47:43;;;;;;;4.57;4.27;;;23.50;99.90;;;;;;5074537;28;20610;-76
2022/07/30 08:50:10;;;;;;;5.20;4.80;;;23.60;99.90;;;;;;5072112;28;20615;-76
2022/07/30 08:52:37;;;;;;;8.43;5.03;;;23.90;99.90;;;;;;5071247;28;20626;-76
2022/07/30 08:55:05;;;;;;;4.90;4.50;;;24.00;99.90;;;;;;5074557;28;20577;-76
2022/07/30 08:57:33;;;;;;;4.60;4.20;;;24.30;99.90;;;;;;5077320;28;21014;-76
2022/07/30 09:00:00;;;;;;;11.10;4.53;;;24.40;99.90;;;;;;5059038;28;20683;-76
2022/07/30 09:02:30;;;;;;;6.43;3.83;;;24.40;99.90;;;;;;5075613;28;20618;-76
2022/07/30 09:04:56;;;;;;;7.70;4.17;;;24.70;99.90;;;;;;5075666;28;20654;-76
2022/07/30 09:07:23;;;;;;;8.00;4.37;;;24.70;99.90;;;;;;5077061;28;21054;-76
2022/07/30 09:09:49;;;;;;;5.00;4.60;;;24.80;99.90;;;;;;5075727;28;20629;-76
2022/07/30 09:12:42;;;;;;;8.13;4.10;;;24.80;99.90;;;;;;5075698;28;20606;-76
2022/07/30 09:15:14;;;;;;;4.47;4.07;;;24.70;99.90;;;;;;5076702;28;20605;-76
2022/07/30 09:17:59;;;;;;;4.00;3.80;;;24.90;99.90;;;;;;5077269;28;20620;-76
2022/07/30 09:20:33;;;;;;;8.07;4.13;;;25.30;99.90;;;;;;5075327;28;20621;-76
2022/07/30 09:23:02;;;;;;;4.37;3.97;;;25.60;99.90;;;;;;5077119;28;20642;-76
2022/07/30 09:25:41;;;;;;;5.97;4.67;;;25.30;99.90;;;;;;5076589;28;21028;-76
2022/07/30 09:28:09;;;;;;;4.17;3.60;;;25.70;99.90;;;;;;5076965;28;20581;-76
2022/07/30 09:30:52;;;;;;;7.33;4.30;;;25.80;99.90;;;;;;5076895;28;20570;-76
2022/07/30 09:33:36;;;;;;;5.33;3.40;;;25.70;99.90;;;;;;5076747;28;20620;-76
2022/07/30 09:36:08;;;;;;;4.13;2.90;;;26.10;99.90;;;;;;5076527;28;20949;-76
2022/07/30 09:38:47;;;;;;;3.80;3.27;;;26.30;99.90;;;;;;5076771;28;20571;-76
2022/07/30 09:41:15;;;;;;;7.13;3.10;;;26.50;99.90;;;;;;5075013;28;20618;-76
2022/07/30 09:43:47;;;;;;;3.90;3.50;;;27.30;99.90;;;;;;5076125;28;21069;-76
2022/07/30 09:46:15;;;;;;;9.33;3.37;;;27.40;99.90;;;;;;5074923;28;20667;-75
2022/07/30 09:48:42;;;;;;;3.60;3.30;;;27.10;99.90;;;;;;5074858;28;21020;-75
2022/07/30 09:51:09;;;;;;;3.23;3.03;;;27.50;99.90;;;;;;5074756;28;20629;-75
2022/07/30 09:53:35;;;;;;;3.63;3.33;;;27.70;99.90;;;;;;5075492;28;20563;-76
2022/07/30 09:56:23;;;;;;;5.00;3.60;;;28.20;99.90;;;;;;5076734;28;20574;-76
2022/07/30 09:58:50;;;;;;;6.60;3.57;;;28.50;99.90;;;;;;5076291;28;20705;-75
2022/07/30 10:01:17;;;;;;;4.43;4.03;;;28.50;99.90;;;;;;5058285;28;20614;-76
2022/07/30 10:03:44;;;;;;;3.40;3.10;;;28.40;99.90;;;;;;5076377;28;20583;-75
2022/07/30 10:06:11;;;;;;;5.43;4.10;;;27.80;99.90;;;;;;5075325;28;20676;-77
2022/07/30 10:08:49;;;;;;;3.73;3.20;;;28.20;99.90;;;;;;5074880;28;20684;-75
2022/07/30 10:11:21;;;;;;;3.47;3.13;;;28.80;99.90;;;;;;5076168;28;20578;-74
2022/07/30 10:13:50;;;;;;;3.67;3.30;;;28.60;99.90;;;;;;5074223;28;20626;-75
2022/07/30 10:16:17;;;;;;;4.83;4.27;;;28.30;99.90;;;;;;5075480;28;20942;-76
2022/07/30 10:18:44;;;;;;;2.90;2.80;;;28.40;99.90;;;;;;5074549;28;20583;-76
2022/07/30 10:21:11;;;;;;;7.67;4.17;;;27.60;99.90;;;;;;5076029;28;20578;-75
2022/07/30 10:23:39;;;;;;;5.40;4.10;;;27.90;99.90;;;;;;5075816;28;20644;-75
2022/07/30 10:26:07;;;;;;;7.40;3.10;;;28.40;99.90;;;;;;5075900;28;21006;-75
2022/07/30 10:28:34;;;;;;;5.03;3.30;;;28.40;99.90;;;;;;5074272;28;20995;-76
2022/07/30 10:31:00;;;;;;;4.30;3.90;;;27.70;99.90;;;;;;5075862;28;20606;-76
2022/07/30 10:33:29;;;;;;;6.47;3.10;;;28.00;99.90;;;;;;5075208;28;20589;-76
2022/07/30 10:35:56;;;;;;;5.90;2.80;;;27.90;99.90;;;;;;5074615;28;20683;-76
2022/07/30 10:38:32;;;;;;;7.40;2.60;;;27.60;99.90;;;;;;5057258;28;20621;-75
2022/07/30 10:41:04;;;;;;;6.10;3.50;;;28.10;99.90;;;;;;5074142;28;20626;-75
2022/07/30 10:44:10;;;;;;;3.17;2.63;;;27.80;99.90;;;;;;5074062;28;20617;-75
2022/07/30 10:47:12;;;;;;;3.00;2.50;;;27.70;99.90;;;;;;5074611;28;20669;-75
2022/07/30 10:49:39;;;;;;;3.30;3.00;;;27.80;99.90;;;;;;5052565;28;20637;-75
2022/07/30 10:52:06;;;;;;;3.00;2.80;;;27.40;99.90;;;;;;5075312;28;20577;-76
2022/07/30 10:54:32;;;;;;;5.60;3.20;;;27.80;99.90;;;;;;5075037;28;20574;-76
2022/07/30 10:57:06;;;;;;;2.70;2.50;;;27.90;99.90;;;;;;5073511;28;20630;-77
2022/07/30 10:59:51;;;;;;;3.70;2.73;;;28.30;99.90;;;;;;5075444;28;20594;-76
2022/07/30 11:02:21;;;;;;;3.30;2.97;;;28.90;99.90;;;;;;5075043;28;20919;-76
2022/07/30 11:04:49;;;;;;;3.20;2.70;;;29.10;99.90;;;;;;5075066;28;20642;-76
2022/07/30 11:07:21;;;;;;;6.13;2.90;;;28.70;99.90;;;;;;5074673;28;21199;-76
2022/07/30 11:09:49;;;;;;;3.40;2.83;;;28.30;99.90;;;;;;5075062;28;20577;-76
2022/07/30 11:12:41;;;;;;;3.97;3.00;;;28.70;99.90;;;;;;5073798;28;20590;-76
2022/07/30 11:15:12;;;;;;;2.90;2.60;;;28.50;99.90;;;;;;5074352;28;20617;-76
2022/07/30 11:17:58;;;;;;;3.10;2.90;;;28.90;99.90;;;;;;5074249;28;20574;-76
2022/07/30 11:20:25;;;;;;;3.73;2.80;;;28.10;99.90;;;;;;5074841;28;20562;-76
2022/07/30 11:22:52;;;;;;;2.80;2.60;;;28.10;99.90;;;;;;5074288;28;21164;-76
2022/07/30 11:25:22;;;;;;;2.97;2.77;;;27.60;99.90;;;;;;5074285;28;20645;-76
2022/07/30 11:27:49;;;;;;;2.70;2.50;;;27.80;99.90;;;;;;5074286;28;20570;-76
2022/07/30 11:30:16;;;;;;;5.87;3.00;;;29.10;99.90;;;;;;5074212;28;20574;-74
2022/07/30 11:32:47;;;;;;;5.20;2.70;;;30.30;99.90;;;;;;5074424;28;20574;-76
2022/07/30 11:35:30;;;;;;;2.83;2.50;;;29.00;99.90;;;;;;5074072;28;20613;-74
2022/07/30 11:38:05;;;;;;;3.43;3.03;;;28.40;99.90;;;;;;5072643;28;20610;-76
2022/07/30 11:40:53;;;;;;;3.57;2.90;;;28.90;99.90;;;;;;5073532;28;20925;-76
2022/07/30 11:43:34;;;;;;;3.90;3.60;;;29.70;99.90;;;;;;5070281;28;21223;-76
2022/07/30 11:46:09;;;;;;;3.13;2.73;;;28.80;99.90;;;;;;5072572;28;20657;-75
2022/07/30 11:48:39;;;;;;;2.67;2.43;;;28.90;99.90;;;;;;5073795;28;20594;-75
2022/07/30 11:51:07;;;;;;;4.60;2.50;;;29.00;99.90;;;;;;5072248;28;20602;-75
2022/07/30 11:53:34;;;;;;;3.27;2.50;;;29.50;99.90;;;;;;5073519;28;20610;-74
2022/07/30 11:56:02;;;;;;;3.17;2.20;;;29.60;99.90;;;;;;5073528;28;20578;-76
2022/07/30 11:58:37;;;;;;;3.30;2.73;;;29.60;99.90;;;;;;5073667;28;20915;-75
2022/07/30 12:01:13;;;;;;;2.43;2.33;;;30.10;99.90;;;;;;5073388;28;20614;-75
2022/07/30 12:03:42;;;;;;;2.50;2.40;;;31.10;99.90;;;;;;5073826;28;20577;-75
2022/07/30 12:06:16;;;;;;;3.77;2.80;;;30.80;99.90;;;;;;5072069;28;20746;-76
2022/07/30 12:08:45;;;;;;;2.33;2.20;;;30.90;99.90;;;;;;5074097;28;20570;-76
2022/07/30 12:11:12;;;;;;;3.77;2.60;;;31.40;99.90;;;;;;5071962;28;20618;-75
2022/07/30 12:13:42;;;;;;;4.33;2.80;;;32.40;99.90;;;;;;5073760;28;20663;-75
2022/07/30 12:16:11;;;;;;;2.90;2.70;;;33.50;99.90;;;;;;5071824;28;21168;-76
2022/07/30 12:18:37;;;;;;;2.70;2.50;;;34.60;99.90;;;;;;5072085;28;20618;-76
2022/07/30 12:21:10;;;;;;;2.30;2.20;;;32.40;99.90;;;;;;5073707;28;20932;-75
2022/07/30 12:23:37;;;;;;;5.40;2.77;;;30.10;99.90;;;;;;5072057;28;20642;-75
2022/07/30 12:26:07;;;;;;;4.93;2.80;;;29.90;99.90;;;;;;5072296;28;20979;-75
2022/07/30 12:28:35;;;;;;;2.70;2.40;;;30.30;99.90;;;;;;5072359;28;20614;-75
2022/07/30 12:31:03;;;;;;;2.73;2.60;;;31.10;99.90;;;;;;5073606;28;20579;-75
2022/07/30 12:33:30;;;;;;;3.77;3.13;;;31.60;99.90;;;;;;5072987;28;20618;-75
2022/07/30 12:35:59;;;;;;;3.63;2.70;;;32.40;99.90;;;;;;5073012;28;20593;-75
2022/07/30 12:38:27;;;;;;;2.90;2.70;;;31.90;99.90;;;;;;5071844;28;20610;-75
2022/07/30 12:41:04;;;;;;;2.50;2.40;;;31.20;99.90;;;;;;5073162;28;20595;-75
2022/07/30 12:43:52;;;;;;;3.57;2.73;;;31.60;99.90;;;;;;5073074;28;20610;-75
2022/07/30 12:46:20;;;;;;;2.90;2.70;;;32.20;99.90;;;;;;5073337;28;20622;-75
2022/07/30 12:48:59;;;;;;;4.30;2.67;;;32.80;99.90;;;;;;5072109;28;20617;-75
2022/07/30 12:51:27;;;;;;;2.97;2.80;;;32.40;99.90;;;;;;5073408;28;20578;-75
2022/07/30 12:53:55;;;;;;;2.70;2.57;;;32.40;99.90;;;;;;5073353;28;20602;-76
2022/07/30 12:56:29;;;;;;;3.83;2.63;;;32.50;99.90;;;;;;5072928;28;20578;-75